Time;durP1;ratioP1;P1;durP2;ratioP2;P2;SDS_P1;SDS_P2;PMS_P1;PMS_P2;Temp;Humidity;BMP_temperature;BMP_pressure;BME280_temperature;BME280_humidity;BME280_pressure;Samples;Min_cycle;Max_cycle;Signal;HPM_P1;HPM_P2
2022/12/16 00:01:30;;;;;;;2.10;0.50;;;;;;;;;;6304422;22;20034;-90
2022/12/16 00:03:57;;;;;;;3.33;0.55;;;;;;;;;;6304666;22;20007;-90
2022/12/16 00:06:23;;;;;;;5.38;0.65;;;;;;;;;;6305752;22;20003;-91
2022/12/16 00:08:48;;;;;;;2.88;0.50;;;;;;;;;;6331399;22;20602;-90
2022/12/16 00:11:13;;;;;;;4.57;0.50;;;;;;;;;;6305048;22;20032;-91
2022/12/16 00:13:39;;;;;;;3.72;0.60;;;;;;;;;;6306178;22;20006;-91
2022/12/16 00:16:05;;;;;;;4.90;0.55;;;;;;;;;;6305256;22;20056;-91
2022/12/16 00:18:30;;;;;;;4.00;0.70;;;;;;;;;;6305371;22;20007;-92
2022/12/16 00:20:56;;;;;;;6.43;0.70;;;;;;;;;;6304816;22;20416;-91
2022/12/16 00:23:21;;;;;;;7.38;0.80;;;;;;;;;;6305549;22;20006;-91
2022/12/16 00:25:47;;;;;;;3.00;0.47;;;;;;;;;;6334497;22;20019;-92
2022/12/16 00:28:13;;;;;;;2.40;0.30;;;;;;;;;;6305773;22;20005;-91
2022/12/16 00:30:38;;;;;;;4.50;0.45;;;;;;;;;;6334416;22;19999;-90
2022/12/16 00:33:04;;;;;;;3.45;0.52;;;;;;;;;;6307585;22;20056;-91
2022/12/16 00:35:32;;;;;;;5.18;0.73;;;;;;;;;;6319275;22;20042;-91
2022/12/16 00:37:58;;;;;;;4.20;0.70;;;;;;;;;;6342915;22;20003;-91
2022/12/16 00:40:24;;;;;;;5.15;0.70;;;;;;;;;;6335943;22;20052;-91
2022/12/16 00:42:49;;;;;;;3.63;0.70;;;;;;;;;;6333545;22;20011;-92
2022/12/16 00:45:14;;;;;;;4.88;0.55;;;;;;;;;;6315817;22;20024;-91
2022/12/16 00:47:39;;;;;;;3.53;0.45;;;;;;;;;;6319531;22;19998;-91
2022/12/16 00:50:05;;;;;;;3.75;0.70;;;;;;;;;;6308490;22;20013;-91
2022/12/16 00:52:31;;;;;;;4.47;0.50;;;;;;;;;;6305958;22;20032;-91
2022/12/16 00:54:57;;;;;;;2.05;0.63;;;;;;;;;;6306273;22;20352;-92
2022/12/16 00:57:22;;;;;;;7.28;0.40;;;;;;;;;;6304947;22;20025;-90
2022/12/16 00:59:47;;;;;;;6.15;0.57;;;;;;;;;;6304686;22;20454;-91
2022/12/16 01:02:13;;;;;;;4.70;0.40;;;;;;;;;;6305273;22;20052;-91
2022/12/16 01:04:38;;;;;;;4.88;0.50;;;;;;;;;;6304810;22;20006;-91
2022/12/16 01:07:03;;;;;;;3.38;0.50;;;;;;;;;;6304590;22;20014;-92
2022/12/16 01:09:29;;;;;;;1.95;0.35;;;;;;;;;;6305161;22;20412;-92
2022/12/16 01:11:54;;;;;;;4.00;0.45;;;;;;;;;;6333342;22;20011;-93
2022/12/16 01:14:20;;;;;;;4.55;0.57;;;;;;;;;;6308407;22;20002;-92
2022/12/16 01:16:45;;;;;;;4.03;0.65;;;;;;;;;;6305231;22;20082;-92
2022/12/16 01:19:10;;;;;;;3.85;0.50;;;;;;;;;;6334321;22;20132;-91
2022/12/16 01:21:36;;;;;;;3.28;0.45;;;;;;;;;;6306354;22;20332;-92
2022/12/16 01:24:01;;;;;;;3.25;0.50;;;;;;;;;;6306749;22;20047;-92
2022/12/16 01:26:27;;;;;;;2.58;0.40;;;;;;;;;;6307486;22;20005;-93
2022/12/16 01:28:52;;;;;;;2.65;0.50;;;;;;;;;;6335224;22;20010;-92
2022/12/16 01:31:18;;;;;;;5.45;0.80;;;;;;;;;;6334283;22;20049;-92
2022/12/16 01:33:43;;;;;;;3.83;0.50;;;;;;;;;;6305885;22;20006;-92
2022/12/16 01:36:09;;;;;;;4.70;0.85;;;;;;;;;;6306166;22;20014;-92
2022/12/16 01:38:35;;;;;;;3.75;0.80;;;;;;;;;;6306452;22;20010;-93
2022/12/16 01:41:01;;;;;;;8.27;1.15;;;;;;;;;;6334326;22;19999;-93
2022/12/16 01:43:27;;;;;;;4.20;0.80;;;;;;;;;;6307230;22;20003;-92
2022/12/16 01:45:57;;;;;;;3.53;0.40;;;;;;;;;;6306778;22;20313;-92
2022/12/16 01:48:26;;;;;;;4.95;0.60;;;;;;;;;;6305931;22;20010;-92
2022/12/16 01:50:53;;;;;;;4.93;0.80;;;;;;;;;;6307167;22;20024;-92
2022/12/16 01:53:18;;;;;;;3.85;0.50;;;;;;;;;;6306223;22;20340;-92
2022/12/16 01:55:47;;;;;;;2.22;0.47;;;;;;;;;;6306561;22;20018;-92
2022/12/16 01:58:14;;;;;;;2.80;0.52;;;;;;;;;;6333842;22;20061;-91
2022/12/16 02:00:40;;;;;;;7.30;0.85;;;;;;;;;;6307306;22;20017;-93
2022/12/16 02:03:05;;;;;;;2.53;0.43;;;;;;;;;;6307364;22;20081;-90
2022/12/16 02:05:32;;;;;;;3.00;0.32;;;;;;;;;;6335882;22;20006;-93
2022/12/16 02:08:03;;;;;;;1.85;0.40;;;;;;;;;;6306229;22;20049;-92
2022/12/16 02:10:33;;;;;;;5.63;0.60;;;;;;;;;;6306347;22;20126;-92
2022/12/16 02:13:01;;;;;;;4.28;0.68;;;;;;;;;;6305811;22;20009;-92
2022/12/16 02:15:42;;;;;;;2.85;0.45;;;;;;;;;;6306838;22;20022;-92
2022/12/16 02:18:19;;;;;;;3.50;0.57;;;;;;;;;;6333086;22;20086;-92
2022/12/16 02:20:56;;;;;;;2.78;0.82;;;;;;;;;;6306150;22;19999;-92
2022/12/16 02:23:40;;;;;;;4.30;0.68;;;;;;;;;;6305724;22;20003;-92
2022/12/16 02:26:05;;;;;;;;;;;;;;;;;;6335376;22;20018;-91
2022/12/16 02:28:49;;;;;;;4.57;0.50;;;;;;;;;;6306239;22;20197;-92
2022/12/16 02:31:25;;;;;;;4.32;0.47;;;;;;;;;;6305758;22;20485;-92
2022/12/16 02:33:54;;;;;;;4.85;0.60;;;;;;;;;;6305884;22;20439;-91
2022/12/16 02:36:38;;;;;;;2.53;0.47;;;;;;;;;;6334963;22;20006;-92
2022/12/16 02:39:07;;;;;;;4.95;0.70;;;;;;;;;;6307580;22;20003;-91
2022/12/16 02:41:46;;;;;;;4.20;0.50;;;;;;;;;;6337096;22;19998;-91
2022/12/16 02:44:13;;;;;;;2.92;0.50;;;;;;;;;;6310395;22;20037;-92
2022/12/16 02:46:39;;;;;;;3.10;0.40;;;;;;;;;;6341559;22;19995;-91
2022/12/16 02:49:06;;;;;;;5.57;0.70;;;;;;;;;;6324639;22;20011;-92
2022/12/16 02:51:32;;;;;;;5.03;0.60;;;;;;;;;;6333684;22;20051;-92
2022/12/16 02:53:57;;;;;;;2.92;0.52;;;;;;;;;;6318592;22;20014;-91
2022/12/16 02:56:34;;;;;;;4.72;0.40;;;;;;;;;;6340710;22;19998;-92
2022/12/16 02:59:12;;;;;;;6.28;0.68;;;;;;;;;;6311616;22;20026;-91
2022/12/16 03:04:14;;;;;;;3.28;0.50;;;;;;;;;;6226137;23;20024;-91
2022/12/16 03:06:41;;;;;;;4.22;0.50;;;;;;;;;;6229683;23;20095;-89
2022/12/16 03:09:09;;;;;;;2.95;0.40;;;;;;;;;;6235946;23;20019;-91
2022/12/16 03:11:36;;;;;;;6.80;0.55;;;;;;;;;;6237857;23;20030;-91
2022/12/16 03:14:02;;;;;;;8.45;0.65;;;;;;;;;;6236692;23;20058;-92
2022/12/16 03:16:30;;;;;;;4.57;1.48;;;;;;;;;;6238279;23;20058;-90
2022/12/16 03:18:58;;;;;;;4.18;0.45;;;;;;;;;;6237547;23;20004;-90
2022/12/16 03:21:26;;;;;;;2.15;0.50;;;;;;;;;;6239958;22;20474;-91
2022/12/16 03:23:59;;;;;;;2.47;0.30;;;;;;;;;;6237454;22;20004;-91
2022/12/16 03:26:29;;;;;;;5.40;0.73;;;;;;;;;;6238859;22;20022;-91
2022/12/16 03:29:04;;;;;;;4.10;0.47;;;;;;;;;;6237491;23;20011;-91
2022/12/16 03:31:30;;;;;;;5.13;0.52;;;;;;;;;;6238921;23;20027;-91
2022/12/16 03:33:59;;;;;;;3.30;0.30;;;;;;;;;;6236585;23;20008;-91
2022/12/16 03:36:25;;;;;;;6.22;0.82;;;;;;;;;;6236069;23;20616;-91
2022/12/16 03:38:50;;;;;;;5.47;0.70;;;;;;;;;;6239402;22;20000;-91
2022/12/16 03:41:17;;;;;;;5.25;0.82;;;;;;;;;;6238315;23;20141;-91
2022/12/16 03:43:42;;;;;;;5.68;0.55;;;;;;;;;;6239920;22;20004;-92
2022/12/16 03:46:08;;;;;;;3.92;0.52;;;;;;;;;;6240217;22;19997;-91
2022/12/16 03:48:34;;;;;;;3.00;0.35;;;;;;;;;;6252559;22;20346;-92
2022/12/16 03:51:00;;;;;;;3.20;0.68;;;;;;;;;;6253831;23;20012;-91
2022/12/16 03:53:25;;;;;;;4.18;0.52;;;;;;;;;;6243183;22;20241;-92
2022/12/16 03:55:54;;;;;;;2.10;0.40;;;;;;;;;;6239807;23;20008;-92
2022/12/16 03:58:19;;;;;;;3.38;0.60;;;;;;;;;;6241788;22;20100;-90
2022/12/16 04:00:44;;;;;;;3.75;0.30;;;;;;;;;;6255127;23;20019;-91
2022/12/16 04:03:11;;;;;;;6.57;1.17;;;;;;;;;;6252899;23;20016;-91
2022/12/16 04:05:36;;;;;;;3.65;0.40;;;;;;;;;;6240903;22;20095;-92
2022/12/16 04:08:01;;;;;;;4.63;1.20;;;;;;;;;;6240197;22;20106;-91
2022/12/16 04:24:19;;;;;;;3.88;0.55;;;;;;;;;;6238514;22;20014;-91
2022/12/16 04:29:32;;;;;;;3.67;0.50;;;;;;;;;;6240958;23;20125;-91
2022/12/16 04:31:58;;;;;;;3.38;0.50;;;;;;;;;;6238150;22;20031;-91
2022/12/16 04:34:27;;;;;;;5.60;0.57;;;;;;;;;;6237958;23;20020;-90
